sensor_id;sensor_type;location;lat;lon;timestamp;P1;durP1;ratioP1;P2;durP2;ratioP2
10126;SDS011;13080;42.608;23.362;2022-08-19T00:01:51;4.28;;;3.65;;
10126;SDS011;13080;42.608;23.362;2022-08-19T00:04:18;4.18;;;3.63;;
10126;SDS011;13080;42.608;23.362;2022-08-19T00:06:46;3.55;;;3.22;;
10126;SDS011;13080;42.608;23.362;2022-08-19T00:09:14;3.65;;;3.25;;
10126;SDS011;13080;42.608;23.362;2022-08-19T00:11:41;5.45;;;3.30;;
10126;SDS011;13080;42.608;23.362;2022-08-19T00:14:08;3.60;;;3.30;;
10126;SDS011;13080;42.608;23.362;2022-08-19T00:16:37;4.80;;;3.30;;
10126;SDS011;13080;42.608;23.362;2022-08-19T00:19:04;4.60;;;3.53;;
10126;SDS011;13080;42.608;23.362;2022-08-19T00:21:30;3.85;;;3.47;;
10126;SDS011;13080;42.608;23.362;2022-08-19T00:23:57;4.95;;;3.80;;
10126;SDS011;13080;42.608;23.362;2022-08-19T00:26:23;4.28;;;3.88;;
10126;SDS011;13080;42.608;23.362;2022-08-19T00:28:50;3.78;;;3.47;;
10126;SDS011;13080;42.608;23.362;2022-08-19T00:31:17;6.20;;;3.47;;
10126;SDS011;13080;42.608;23.362;2022-08-19T00:33:45;6.88;;;4.45;;
10126;SDS011;13080;42.608;23.362;2022-08-19T00:36:11;3.70;;;3.40;;
10126;SDS011;13080;42.608;23.362;2022-08-19T00:38:38;5.10;;;3.35;;
10126;SDS011;13080;42.608;23.362;2022-08-19T00:41:06;5.57;;;3.50;;
10126;SDS011;13080;42.608;23.362;2022-08-19T00:43:33;4.93;;;3.72;;
10126;SDS011;13080;42.608;23.362;2022-08-19T00:46:00;4.88;;;3.40;;
10126;SDS011;13080;42.608;23.362;2022-08-19T00:48:28;4.90;;;4.50;;
10126;SDS011;13080;42.608;23.362;2022-08-19T00:50:56;6.82;;;4.10;;
10126;SDS011;13080;42.608;23.362;2022-08-19T00:53:23;10.85;;;6.70;;
10126;SDS011;13080;42.608;23.362;2022-08-19T00:55:52;8.32;;;6.50;;
10126;SDS011;13080;42.608;23.362;2022-08-19T00:58:19;5.75;;;4.25;;
10126;SDS011;13080;42.608;23.362;2022-08-19T01:00:47;4.90;;;4.50;;
10126;SDS011;13080;42.608;23.362;2022-08-19T01:03:15;6.80;;;3.90;;
10126;SDS011;13080;42.608;23.362;2022-08-19T01:05:43;6.35;;;4.68;;
10126;SDS011;13080;42.608;23.362;2022-08-19T01:08:11;6.72;;;3.88;;
10126;SDS011;13080;42.608;23.362;2022-08-19T01:10:40;5.90;;;4.80;;
10126;SDS011;13080;42.608;23.362;2022-08-19T01:13:08;6.70;;;5.85;;
10126;SDS011;13080;42.608;23.362;2022-08-19T01:15:35;5.45;;;4.95;;
10126;SDS011;13080;42.608;23.362;2022-08-19T01:18:06;4.30;;;3.90;;
10126;SDS011;13080;42.608;23.362;2022-08-19T01:20:33;4.13;;;3.72;;
10126;SDS011;13080;42.608;23.362;2022-08-19T01:23:01;4.30;;;3.90;;
10126;SDS011;13080;42.608;23.362;2022-08-19T01:25:28;5.10;;;4.60;;
10126;SDS011;13080;42.608;23.362;2022-08-19T01:27:55;8.30;;;4.40;;
10126;SDS011;13080;42.608;23.362;2022-08-19T01:30:24;4.18;;;3.78;;
10126;SDS011;13080;42.608;23.362;2022-08-19T01:32:50;4.18;;;3.42;;
10126;SDS011;13080;42.608;23.362;2022-08-19T01:35:17;7.13;;;3.70;;
10126;SDS011;13080;42.608;23.362;2022-08-19T01:37:46;3.72;;;3.33;;
10126;SDS011;13080;42.608;23.362;2022-08-19T01:40:15;5.65;;;4.05;;
10126;SDS011;13080;42.608;23.362;2022-08-19T01:42:42;4.30;;;3.70;;
10126;SDS011;13080;42.608;23.362;2022-08-19T01:45:09;4.07;;;3.60;;
10126;SDS011;13080;42.608;23.362;2022-08-19T01:47:35;4.00;;;3.60;;
10126;SDS011;13080;42.608;23.362;2022-08-19T01:50:02;3.40;;;3.10;;
10126;SDS011;13080;42.608;23.362;2022-08-19T01:52:29;5.55;;;3.78;;
10126;SDS011;13080;42.608;23.362;2022-08-19T01:54:56;4.00;;;3.60;;
10126;SDS011;13080;42.608;23.362;2022-08-19T01:57:24;3.67;;;3.35;;
10126;SDS011;13080;42.608;23.362;2022-08-19T01:59:51;6.22;;;3.58;;
10126;SDS011;13080;42.608;23.362;2022-08-19T02:02:17;3.53;;;3.22;;
10126;SDS011;13080;42.608;23.362;2022-08-19T02:04:44;4.18;;;3.78;;
10126;SDS011;13080;42.608;23.362;2022-08-19T02:07:11;3.47;;;3.17;;
10126;SDS011;13080;42.608;23.362;2022-08-19T02:09:37;4.20;;;3.80;;
10126;SDS011;13080;42.608;23.362;2022-08-19T02:12:04;4.07;;;3.22;;
10126;SDS011;13080;42.608;23.362;2022-08-19T02:14:32;6.95;;;4.45;;
10126;SDS011;13080;42.608;23.362;2022-08-19T02:16:59;4.60;;;4.20;;
10126;SDS011;13080;42.608;23.362;2022-08-19T02:19:26;4.05;;;3.65;;
10126;SDS011;13080;42.608;23.362;2022-08-19T02:21:52;5.18;;;3.70;;
10126;SDS011;13080;42.608;23.362;2022-08-19T02:24:19;4.07;;;3.67;;
10126;SDS011;13080;42.608;23.362;2022-08-19T02:26:45;3.95;;;3.55;;
10126;SDS011;13080;42.608;23.362;2022-08-19T02:29:12;6.50;;;3.80;;
10126;SDS011;13080;42.608;23.362;2022-08-19T02:31:57;4.03;;;3.30;;
10126;SDS011;13080;42.608;23.362;2022-08-19T02:34:24;3.85;;;3.55;;
10126;SDS011;13080;42.608;23.362;2022-08-19T02:36:51;5.65;;;3.80;;
10126;SDS011;13080;42.608;23.362;2022-08-19T02:39:18;5.18;;;3.55;;
10126;SDS011;13080;42.608;23.362;2022-08-19T02:41:43;5.35;;;3.50;;
10126;SDS011;13080;42.608;23.362;2022-08-19T02:44:10;4.32;;;3.92;;
10126;SDS011;13080;42.608;23.362;2022-08-19T02:46:37;4.55;;;3.63;;
10126;SDS011;13080;42.608;23.362;2022-08-19T02:49:05;4.00;;;3.70;;
10126;SDS011;13080;42.608;23.362;2022-08-19T02:51:33;6.75;;;3.50;;
10126;SDS011;13080;42.608;23.362;2022-08-19T02:54:00;7.88;;;3.53;;
10126;SDS011;13080;42.608;23.362;2022-08-19T02:56:26;4.13;;;3.78;;
10126;SDS011;13080;42.608;23.362;2022-08-19T02:58:53;3.95;;;3.30;;
10126;SDS011;13080;42.608;23.362;2022-08-19T03:01:20;4.47;;;3.97;;
10126;SDS011;13080;42.608;23.362;2022-08-19T03:03:47;5.07;;;4.00;;
10126;SDS011;13080;42.608;23.362;2022-08-19T03:06:15;5.78;;;4.20;;
10126;SDS011;13080;42.608;23.362;2022-08-19T03:08:42;4.60;;;4.10;;
10126;SDS011;13080;42.608;23.362;2022-08-19T03:11:12;3.85;;;3.55;;
10126;SDS011;13080;42.608;23.362;2022-08-19T03:13:38;5.43;;;4.15;;
10126;SDS011;13080;42.608;23.362;2022-08-19T03:16:05;4.90;;;4.32;;
10126;SDS011;13080;42.608;23.362;2022-08-19T03:18:32;4.35;;;3.95;;
10126;SDS011;13080;42.608;23.362;2022-08-19T03:20:58;5.13;;;3.95;;
10126;SDS011;13080;42.608;23.362;2022-08-19T03:23:26;4.82;;;4.38;;
10126;SDS011;13080;42.608;23.362;2022-08-19T03:25:53;6.28;;;3.80;;
10126;SDS011;13080;42.608;23.362;2022-08-19T03:28:20;8.38;;;3.55;;
10126;SDS011;13080;42.608;23.362;2022-08-19T03:30:56;7.55;;;4.63;;
10126;SDS011;13080;42.608;23.362;2022-08-19T03:33:23;9.65;;;4.15;;
10126;SDS011;13080;42.608;23.362;2022-08-19T03:35:59;6.72;;;3.60;;
10126;SDS011;13080;42.608;23.362;2022-08-19T03:38:27;5.55;;;3.28;;
10126;SDS011;13080;42.608;23.362;2022-08-19T03:40:54;4.93;;;3.65;;
10126;SDS011;13080;42.608;23.362;2022-08-19T03:43:20;4.40;;;3.70;;
10126;SDS011;13080;42.608;23.362;2022-08-19T03:45:47;3.60;;;3.00;;
10126;SDS011;13080;42.608;23.362;2022-08-19T03:48:16;6.88;;;3.53;;
10126;SDS011;13080;42.608;23.362;2022-08-19T03:50:42;3.80;;;3.45;;
10126;SDS011;13080;42.608;23.362;2022-08-19T03:53:09;14.10;;;3.65;;
10126;SDS011;13080;42.608;23.362;2022-08-19T03:55:40;7.47;;;3.30;;
10126;SDS011;13080;42.608;23.362;2022-08-19T03:58:07;12.93;;;3.53;;
10126;SDS011;13080;42.608;23.362;2022-08-19T04:00:33;4.75;;;3.42;;
10126;SDS011;13080;42.608;23.362;2022-08-19T04:03:01;3.80;;;3.20;;
10126;SDS011;13080;42.608;23.362;2022-08-19T04:05:28;3.58;;;3.28;;
10126;SDS011;13080;42.608;23.362;2022-08-19T04:07:55;4.90;;;3.40;;
10126;SDS011;13080;42.608;23.362;2022-08-19T04:10:24;3.58;;;3.22;;
10126;SDS011;13080;42.608;23.362;2022-08-19T04:12:51;5.40;;;3.47;;
10126;SDS011;13080;42.608;23.362;2022-08-19T04:15:18;5.07;;;3.42;;
10126;SDS011;13080;42.608;23.362;2022-08-19T04:17:45;4.18;;;3.78;;
10126;SDS011;13080;42.608;23.362;2022-08-19T04:20:12;6.13;;;3.58;;
10126;SDS011;13080;42.608;23.362;2022-08-19T04:22:38;3.53;;;3.22;;
10126;SDS011;13080;42.608;23.362;2022-08-19T04:25:05;4.20;;;3.42;;
10126;SDS011;13080;42.608;23.362;2022-08-19T04:27:32;3.95;;;3.30;;
10126;SDS011;13080;42.608;23.362;2022-08-19T04:30:00;5.50;;;3.60;;
10126;SDS011;13080;42.608;23.362;2022-08-19T04:32:27;4.35;;;3.10;;
10126;SDS011;13080;42.608;23.362;2022-08-19T04:34:53;5.07;;;4.00;;
10126;SDS011;13080;42.608;23.362;2022-08-19T04:37:21;5.70;;;4.28;;
10126;SDS011;13080;42.608;23.362;2022-08-19T04:39:48;4.93;;;3.58;;
10126;SDS011;13080;42.608;23.362;2022-08-19T04:42:32;7.63;;;4.68;;
10126;SDS011;13080;42.608;23.362;2022-08-19T04:45:06;4.20;;;3.90;;
10126;SDS011;13080;42.608;23.362;2022-08-19T04:47:34;8.77;;;4.22;;
10126;SDS011;13080;42.608;23.362;2022-08-19T04:50:01;5.93;;;4.00;;
10126;SDS011;13080;42.608;23.362;2022-08-19T04:52:28;5.70;;;4.15;;
10126;SDS011;13080;42.608;23.362;2022-08-19T04:54:56;4.78;;;3.85;;
10126;SDS011;13080;42.608;23.362;2022-08-19T04:57:22;5.97;;;4.38;;
10126;SDS011;13080;42.608;23.362;2022-08-19T04:59:49;4.53;;;4.13;;
10126;SDS011;13080;42.608;23.362;2022-08-19T05:02:20;7.28;;;4.35;;
10126;SDS011;13080;42.608;23.362;2022-08-19T05:04:48;4.78;;;4.10;;
10126;SDS011;13080;42.608;23.362;2022-08-19T05:07:14;3.83;;;3.53;;
10126;SDS011;13080;42.608;23.362;2022-08-19T05:09:41;5.50;;;3.95;;
10126;SDS011;13080;42.608;23.362;2022-08-19T05:12:07;6.40;;;4.60;;
10126;SDS011;13080;42.608;23.362;2022-08-19T05:14:34;5.25;;;4.57;;
10126;SDS011;13080;42.608;23.362;2022-08-19T05:17:01;5.35;;;4.82;;
10126;SDS011;13080;42.608;23.362;2022-08-19T05:19:29;6.95;;;5.30;;
10126;SDS011;13080;42.608;23.362;2022-08-19T05:22:18;5.43;;;4.93;;
10126;SDS011;13080;42.608;23.362;2022-08-19T05:25:02;4.28;;;3.88;;
10126;SDS011;13080;42.608;23.362;2022-08-19T05:27:28;6.30;;;4.72;;
10126;SDS011;13080;42.608;23.362;2022-08-19T05:29:55;6.93;;;4.68;;
10126;SDS011;13080;42.608;23.362;2022-08-19T05:32:21;7.47;;;4.20;;
10126;SDS011;13080;42.608;23.362;2022-08-19T05:34:50;6.55;;;4.72;;
10126;SDS011;13080;42.608;23.362;2022-08-19T05:37:17;6.82;;;4.80;;
10126;SDS011;13080;42.608;23.362;2022-08-19T05:39:43;9.18;;;5.30;;
10126;SDS011;13080;42.608;23.362;2022-08-19T05:42:10;8.30;;;5.63;;
10126;SDS011;13080;42.608;23.362;2022-08-19T05:44:37;6.63;;;5.10;;
10126;SDS011;13080;42.608;23.362;2022-08-19T05:47:05;12.10;;;6.03;;
10126;SDS011;13080;42.608;23.362;2022-08-19T05:49:34;13.55;;;5.78;;
10126;SDS011;13080;42.608;23.362;2022-08-19T05:52:03;19.60;;;4.97;;
10126;SDS011;13080;42.608;23.362;2022-08-19T05:54:29;8.43;;;4.97;;
10126;SDS011;13080;42.608;23.362;2022-08-19T05:56:56;11.15;;;4.90;;
10126;SDS011;13080;42.608;23.362;2022-08-19T05:59:23;8.07;;;4.18;;
10126;SDS011;13080;42.608;23.362;2022-08-19T06:01:50;7.40;;;4.53;;
10126;SDS011;13080;42.608;23.362;2022-08-19T06:04:17;10.45;;;4.75;;
10126;SDS011;13080;42.608;23.362;2022-08-19T06:06:44;6.90;;;4.50;;
10126;SDS011;13080;42.608;23.362;2022-08-19T06:09:12;6.47;;;4.50;;
10126;SDS011;13080;42.608;23.362;2022-08-19T06:11:40;8.02;;;5.15;;
10126;SDS011;13080;42.608;23.362;2022-08-19T06:14:09;17.73;;;4.43;;
10126;SDS011;13080;42.608;23.362;2022-08-19T06:16:36;7.72;;;4.97;;
10126;SDS011;13080;42.608;23.362;2022-08-19T06:19:04;6.25;;;4.40;;
10126;SDS011;13080;42.608;23.362;2022-08-19T06:21:31;10.18;;;4.43;;
10126;SDS011;13080;42.608;23.362;2022-08-19T06:23:58;8.00;;;4.35;;
10126;SDS011;13080;42.608;23.362;2022-08-19T06:26:26;10.57;;;4.68;;
10126;SDS011;13080;42.608;23.362;2022-08-19T06:28:52;7.22;;;4.63;;
10126;SDS011;13080;42.608;23.362;2022-08-19T06:31:20;15.07;;;4.57;;
10126;SDS011;13080;42.608;23.362;2022-08-19T06:33:47;8.60;;;4.63;;
10126;SDS011;13080;42.608;23.362;2022-08-19T06:36:18;7.60;;;4.18;;
10126;SDS011;13080;42.608;23.362;2022-08-19T06:38:44;11.30;;;4.50;;
10126;SDS011;13080;42.608;23.362;2022-08-19T06:41:11;10.48;;;4.35;;
10126;SDS011;13080;42.608;23.362;2022-08-19T06:43:39;5.43;;;4.38;;
10126;SDS011;13080;42.608;23.362;2022-08-19T06:46:09;5.55;;;3.78;;
10126;SDS011;13080;42.608;23.362;2022-08-19T06:48:36;4.75;;;4.35;;
10126;SDS011;13080;42.608;23.362;2022-08-19T06:51:03;9.20;;;4.63;;
10126;SDS011;13080;42.608;23.362;2022-08-19T06:53:30;9.15;;;4.50;;
10126;SDS011;13080;42.608;23.362;2022-08-19T06:55:57;5.72;;;4.50;;
10126;SDS011;13080;42.608;23.362;2022-08-19T06:58:27;6.07;;;4.38;;
10126;SDS011;13080;42.608;23.362;2022-08-19T07:00:58;7.00;;;4.13;;
10126;SDS011;13080;42.608;23.362;2022-08-19T07:03:26;4.32;;;3.97;;
10126;SDS011;13080;42.608;23.362;2022-08-19T07:05:53;5.65;;;3.95;;
10126;SDS011;13080;42.608;23.362;2022-08-19T07:08:19;10.95;;;3.97;;
10126;SDS011;13080;42.608;23.362;2022-08-19T07:10:46;6.25;;;4.25;;
10126;SDS011;13080;42.608;23.362;2022-08-19T07:13:14;8.20;;;4.35;;
10126;SDS011;13080;42.608;23.362;2022-08-19T07:15:41;4.40;;;4.03;;
10126;SDS011;13080;42.608;23.362;2022-08-19T07:18:08;6.68;;;3.97;;
10126;SDS011;13080;42.608;23.362;2022-08-19T07:20:35;5.75;;;4.05;;
10126;SDS011;13080;42.608;23.362;2022-08-19T07:23:03;4.80;;;4.20;;
10126;SDS011;13080;42.608;23.362;2022-08-19T07:25:29;4.60;;;4.20;;
10126;SDS011;13080;42.608;23.362;2022-08-19T07:27:56;9.35;;;4.60;;
10126;SDS011;13080;42.608;23.362;2022-08-19T07:30:22;5.75;;;4.22;;
10126;SDS011;13080;42.608;23.362;2022-08-19T07:32:49;6.38;;;4.57;;
10126;SDS011;13080;42.608;23.362;2022-08-19T07:35:17;8.95;;;4.20;;
10126;SDS011;13080;42.608;23.362;2022-08-19T07:37:45;5.00;;;3.95;;
10126;SDS011;13080;42.608;23.362;2022-08-19T07:40:11;5.85;;;4.43;;
10126;SDS011;13080;42.608;23.362;2022-08-19T07:42:38;6.53;;;4.40;;
10126;SDS011;13080;42.608;23.362;2022-08-19T07:45:05;12.02;;;4.55;;
10126;SDS011;13080;42.608;23.362;2022-08-19T07:47:32;4.65;;;4.15;;
10126;SDS011;13080;42.608;23.362;2022-08-19T07:49:58;8.68;;;3.92;;
10126;SDS011;13080;42.608;23.362;2022-08-19T07:52:26;7.43;;;4.18;;
10126;SDS011;13080;42.608;23.362;2022-08-19T07:54:53;11.05;;;4.28;;
10126;SDS011;13080;42.608;23.362;2022-08-19T07:57:19;8.68;;;4.45;;
10126;SDS011;13080;42.608;23.362;2022-08-19T07:59:46;4.68;;;4.28;;
10126;SDS011;13080;42.608;23.362;2022-08-19T08:02:13;6.30;;;4.47;;
10126;SDS011;13080;42.608;23.362;2022-08-19T08:04:39;6.95;;;3.97;;
10126;SDS011;13080;42.608;23.362;2022-08-19T08:07:23;5.18;;;3.95;;
10126;SDS011;13080;42.608;23.362;2022-08-19T08:10:08;6.97;;;3.97;;
10126;SDS011;13080;42.608;23.362;2022-08-19T08:12:36;7.18;;;4.07;;
10126;SDS011;13080;42.608;23.362;2022-08-19T08:15:06;5.13;;;4.03;;
10126;SDS011;13080;42.608;23.362;2022-08-19T08:17:34;5.65;;;3.58;;
10126;SDS011;13080;42.608;23.362;2022-08-19T08:20:01;6.60;;;4.03;;
10126;SDS011;13080;42.608;23.362;2022-08-19T08:22:28;9.55;;;4.03;;
10126;SDS011;13080;42.608;23.362;2022-08-19T08:25:15;6.50;;;3.47;;
10126;SDS011;13080;42.608;23.362;2022-08-19T08:27:43;8.50;;;3.42;;
10126;SDS011;13080;42.608;23.362;2022-08-19T08:30:12;4.55;;;3.47;;
10126;SDS011;13080;42.608;23.362;2022-08-19T08:32:39;5.43;;;3.65;;
10126;SDS011;13080;42.608;23.362;2022-08-19T08:35:07;5.15;;;3.40;;
10126;SDS011;13080;42.608;23.362;2022-08-19T08:37:34;5.95;;;3.45;;
10126;SDS011;13080;42.608;23.362;2022-08-19T08:40:02;5.70;;;3.80;;
10126;SDS011;13080;42.608;23.362;2022-08-19T08:42:32;3.97;;;2.78;;
10126;SDS011;13080;42.608;23.362;2022-08-19T08:45:00;3.80;;;2.60;;
10126;SDS011;13080;42.608;23.362;2022-08-19T08:47:30;4.05;;;3.10;;
10126;SDS011;13080;42.608;23.362;2022-08-19T08:49:59;8.60;;;2.88;;
10126;SDS011;13080;42.608;23.362;2022-08-19T08:52:27;4.35;;;3.28;;
10126;SDS011;13080;42.608;23.362;2022-08-19T08:54:57;5.47;;;3.00;;
10126;SDS011;13080;42.608;23.362;2022-08-19T08:57:26;4.60;;;2.78;;
10126;SDS011;13080;42.608;23.362;2022-08-19T08:59:55;3.10;;;2.50;;
10126;SDS011;13080;42.608;23.362;2022-08-19T09:02:23;3.33;;;2.80;;
10126;SDS011;13080;42.608;23.362;2022-08-19T09:04:49;5.03;;;2.63;;
10126;SDS011;13080;42.608;23.362;2022-08-19T09:07:21;3.88;;;2.88;;
10126;SDS011;13080;42.608;23.362;2022-08-19T09:09:49;10.05;;;3.50;;
10126;SDS011;13080;42.608;23.362;2022-08-19T09:12:18;4.05;;;2.80;;
10126;SDS011;13080;42.608;23.362;2022-08-19T09:14:48;3.45;;;3.03;;
10126;SDS011;13080;42.608;23.362;2022-08-19T09:17:17;5.57;;;2.80;;
10126;SDS011;13080;42.608;23.362;2022-08-19T09:19:49;2.67;;;2.47;;
10126;SDS011;13080;42.608;23.362;2022-08-19T09:22:16;2.55;;;2.20;;
10126;SDS011;13080;42.608;23.362;2022-08-19T09:24:42;3.88;;;2.83;;
10126;SDS011;13080;42.608;23.362;2022-08-19T09:27:09;6.85;;;2.90;;
10126;SDS011;13080;42.608;23.362;2022-08-19T09:29:35;3.80;;;2.60;;
10126;SDS011;13080;42.608;23.362;2022-08-19T09:32:02;7.20;;;2.67;;
10126;SDS011;13080;42.608;23.362;2022-08-19T09:34:31;3.80;;;2.72;;
10126;SDS011;13080;42.608;23.362;2022-08-19T09:36:57;5.00;;;2.28;;
10126;SDS011;13080;42.608;23.362;2022-08-19T09:39:25;2.50;;;2.30;;
10126;SDS011;13080;42.608;23.362;2022-08-19T09:41:51;4.38;;;2.63;;
10126;SDS011;13080;42.608;23.362;2022-08-19T09:44:19;9.60;;;2.60;;
10126;SDS011;13080;42.608;23.362;2022-08-19T09:46:45;6.60;;;2.83;;
10126;SDS011;13080;42.608;23.362;2022-08-19T09:49:13;5.25;;;2.80;;
10126;SDS011;13080;42.608;23.362;2022-08-19T09:51:40;2.88;;;2.50;;
10126;SDS011;13080;42.608;23.362;2022-08-19T09:54:07;2.85;;;2.63;;
10126;SDS011;13080;42.608;23.362;2022-08-19T09:56:33;5.95;;;2.78;;
10126;SDS011;13080;42.608;23.362;2022-08-19T09:59:00;4.28;;;2.50;;
10126;SDS011;13080;42.608;23.362;2022-08-19T10:01:29;5.20;;;2.50;;
10126;SDS011;13080;42.608;23.362;2022-08-19T10:03:56;6.72;;;3.30;;
10126;SDS011;13080;42.608;23.362;2022-08-19T10:06:24;3.47;;;2.65;;
10126;SDS011;13080;42.608;23.362;2022-08-19T10:08:53;3.40;;;2.70;;
10126;SDS011;13080;42.608;23.362;2022-08-19T10:11:19;5.45;;;2.65;;
10126;SDS011;13080;42.608;23.362;2022-08-19T10:13:46;3.70;;;3.10;;
10126;SDS011;13080;42.608;23.362;2022-08-19T10:16:14;3.20;;;2.70;;
10126;SDS011;13080;42.608;23.362;2022-08-19T10:18:41;3.60;;;2.65;;
10126;SDS011;13080;42.608;23.362;2022-08-19T10:21:10;5.90;;;2.88;;
10126;SDS011;13080;42.608;23.362;2022-08-19T10:23:37;2.92;;;2.60;;
10126;SDS011;13080;42.608;23.362;2022-08-19T10:26:06;5.60;;;2.47;;
10126;SDS011;13080;42.608;23.362;2022-08-19T10:28:33;4.72;;;3.08;;
10126;SDS011;13080;42.608;23.362;2022-08-19T10:31:05;7.20;;;3.10;;
10126;SDS011;13080;42.608;23.362;2022-08-19T10:33:32;6.68;;;3.00;;
10126;SDS011;13080;42.608;23.362;2022-08-19T10:35:59;5.47;;;2.80;;
10126;SDS011;13080;42.608;23.362;2022-08-19T10:38:26;2.85;;;2.50;;
10126;SDS011;13080;42.608;23.362;2022-08-19T10:40:54;3.50;;;2.72;;
10126;SDS011;13080;42.608;23.362;2022-08-19T10:43:22;4.20;;;2.80;;
10126;SDS011;13080;42.608;23.362;2022-08-19T10:45:51;5.72;;;2.92;;
10126;SDS011;13080;42.608;23.362;2022-08-19T10:48:17;4.35;;;2.72;;
10126;SDS011;13080;42.608;23.362;2022-08-19T10:50:44;6.10;;;2.70;;
10126;SDS011;13080;42.608;23.362;2022-08-19T10:53:28;10.05;;;2.72;;
10126;SDS011;13080;42.608;23.362;2022-08-19T10:55:54;6.40;;;3.83;;
10126;SDS011;13080;42.608;23.362;2022-08-19T10:58:40;6.28;;;2.65;;
10126;SDS011;13080;42.608;23.362;2022-08-19T11:01:06;4.07;;;3.00;;
10126;SDS011;13080;42.608;23.362;2022-08-19T11:03:33;7.07;;;3.17;;
10126;SDS011;13080;42.608;23.362;2022-08-19T11:06:00;4.50;;;3.03;;
10126;SDS011;13080;42.608;23.362;2022-08-19T11:08:26;4.82;;;2.75;;
10126;SDS011;13080;42.608;23.362;2022-08-19T11:10:53;7.45;;;3.08;;
10126;SDS011;13080;42.608;23.362;2022-08-19T11:13:25;4.95;;;2.83;;
10126;SDS011;13080;42.608;23.362;2022-08-19T11:16:00;5.47;;;2.60;;
10126;SDS011;13080;42.608;23.362;2022-08-19T11:18:27;4.25;;;2.45;;
10126;SDS011;13080;42.608;23.362;2022-08-19T11:20:53;4.85;;;3.08;;
10126;SDS011;13080;42.608;23.362;2022-08-19T11:23:20;5.32;;;2.88;;
10126;SDS011;13080;42.608;23.362;2022-08-19T11:25:46;4.30;;;2.70;;
10126;SDS011;13080;42.608;23.362;2022-08-19T11:28:13;3.55;;;2.70;;
10126;SDS011;13080;42.608;23.362;2022-08-19T11:30:40;3.40;;;2.90;;
10126;SDS011;13080;42.608;23.362;2022-08-19T11:33:08;6.10;;;2.67;;
10126;SDS011;13080;42.608;23.362;2022-08-19T11:35:38;4.43;;;3.10;;
10126;SDS011;13080;42.608;23.362;2022-08-19T11:38:04;6.57;;;2.92;;
10126;SDS011;13080;42.608;23.362;2022-08-19T11:40:31;6.40;;;2.70;;
10126;SDS011;13080;42.608;23.362;2022-08-19T11:42:58;6.25;;;2.83;;
10126;SDS011;13080;42.608;23.362;2022-08-19T11:45:25;3.70;;;2.70;;
10126;SDS011;13080;42.608;23.362;2022-08-19T11:47:52;3.33;;;3.03;;
10126;SDS011;13080;42.608;23.362;2022-08-19T11:50:20;4.25;;;3.58;;
10126;SDS011;13080;42.608;23.362;2022-08-19T11:52:48;4.63;;;3.28;;
10126;SDS011;13080;42.608;23.362;2022-08-19T11:55:15;5.45;;;2.83;;
10126;SDS011;13080;42.608;23.362;2022-08-19T11:57:41;4.47;;;2.70;;
10126;SDS011;13080;42.608;23.362;2022-08-19T12:00:09;3.22;;;2.92;;
10126;SDS011;13080;42.608;23.362;2022-08-19T12:02:37;3.28;;;2.88;;
10126;SDS011;13080;42.608;23.362;2022-08-19T12:05:03;3.92;;;2.78;;
10126;SDS011;13080;42.608;23.362;2022-08-19T12:07:32;4.63;;;2.78;;
10126;SDS011;13080;42.608;23.362;2022-08-19T12:09:58;7.97;;;3.65;;
10126;SDS011;13080;42.608;23.362;2022-08-19T12:12:25;8.02;;;3.20;;
10126;SDS011;13080;42.608;23.362;2022-08-19T12:14:52;9.38;;;3.00;;
10126;SDS011;13080;42.608;23.362;2022-08-19T12:17:21;5.25;;;3.20;;
10126;SDS011;13080;42.608;23.362;2022-08-19T12:19:48;3.53;;;3.10;;
10126;SDS011;13080;42.608;23.362;2022-08-19T12:22:14;5.38;;;2.90;;
10126;SDS011;13080;42.608;23.362;2022-08-19T12:24:42;5.15;;;2.97;;
10126;SDS011;13080;42.608;23.362;2022-08-19T12:27:09;4.05;;;2.83;;
10126;SDS011;13080;42.608;23.362;2022-08-19T12:29:35;4.03;;;3.50;;
10126;SDS011;13080;42.608;23.362;2022-08-19T12:32:02;3.47;;;2.83;;
10126;SDS011;13080;42.608;23.362;2022-08-19T12:34:29;5.60;;;3.20;;
10126;SDS011;13080;42.608;23.362;2022-08-19T12:36:57;5.30;;;3.00;;
10126;SDS011;13080;42.608;23.362;2022-08-19T12:39:23;6.45;;;3.13;;
10126;SDS011;13080;42.608;23.362;2022-08-19T12:41:51;4.78;;;2.63;;
10126;SDS011;13080;42.608;23.362;2022-08-19T12:44:18;8.20;;;2.95;;
10126;SDS011;13080;42.608;23.362;2022-08-19T12:46:46;4.05;;;2.90;;
10126;SDS011;13080;42.608;23.362;2022-08-19T12:49:12;3.40;;;3.10;;
10126;SDS011;13080;42.608;23.362;2022-08-19T12:51:39;3.25;;;2.67;;
10126;SDS011;13080;42.608;23.362;2022-08-19T12:54:05;3.85;;;3.08;;
10126;SDS011;13080;42.608;23.362;2022-08-19T12:56:32;6.78;;;2.88;;
10126;SDS011;13080;42.608;23.362;2022-08-19T12:59:01;8.50;;;3.30;;
10126;SDS011;13080;42.608;23.362;2022-08-19T13:01:28;3.97;;;3.50;;
10126;SDS011;13080;42.608;23.362;2022-08-19T13:03:57;3.80;;;2.97;;
10126;SDS011;13080;42.608;23.362;2022-08-19T13:06:24;4.55;;;3.13;;
10126;SDS011;13080;42.608;23.362;2022-08-19T13:08:51;3.42;;;3.13;;
10126;SDS011;13080;42.608;23.362;2022-08-19T13:11:18;5.35;;;3.40;;
10126;SDS011;13080;42.608;23.362;2022-08-19T13:13:46;3.80;;;3.03;;
10126;SDS011;13080;42.608;23.362;2022-08-19T13:16:14;4.78;;;3.15;;
10126;SDS011;13080;42.608;23.362;2022-08-19T13:18:41;4.38;;;3.20;;
10126;SDS011;13080;42.608;23.362;2022-08-19T13:21:09;6.97;;;3.80;;
10126;SDS011;13080;42.608;23.362;2022-08-19T13:23:36;4.82;;;3.20;;
10126;SDS011;13080;42.608;23.362;2022-08-19T13:26:03;5.28;;;3.67;;
10126;SDS011;13080;42.608;23.362;2022-08-19T13:28:31;4.45;;;3.38;;
10126;SDS011;13080;42.608;23.362;2022-08-19T13:31:20;6.53;;;3.03;;
10126;SDS011;13080;42.608;23.362;2022-08-19T13:34:05;11.73;;;3.80;;
10126;SDS011;13080;42.608;23.362;2022-08-19T13:36:31;14.15;;;3.20;;
10126;SDS011;13080;42.608;23.362;2022-08-19T13:38:58;4.05;;;3.20;;
10126;SDS011;13080;42.608;23.362;2022-08-19T13:41:25;4.15;;;3.15;;
10126;SDS011;13080;42.608;23.362;2022-08-19T13:43:51;4.18;;;3.20;;
10126;SDS011;13080;42.608;23.362;2022-08-19T13:46:20;3.95;;;3.20;;
10126;SDS011;13080;42.608;23.362;2022-08-19T13:48:47;8.10;;;3.40;;
10126;SDS011;13080;42.608;23.362;2022-08-19T13:51:14;4.13;;;3.35;;
10126;SDS011;13080;42.608;23.362;2022-08-19T13:53:41;5.10;;;3.10;;
10126;SDS011;13080;42.608;23.362;2022-08-19T13:56:08;6.38;;;3.13;;
10126;SDS011;13080;42.608;23.362;2022-08-19T13:58:35;7.32;;;3.40;;
10126;SDS011;13080;42.608;23.362;2022-08-19T14:01:02;8.43;;;3.30;;
10126;SDS011;13080;42.608;23.362;2022-08-19T14:03:30;5.47;;;3.13;;
10126;SDS011;13080;42.608;23.362;2022-08-19T14:05:57;4.10;;;3.15;;
10126;SDS011;13080;42.608;23.362;2022-08-19T14:08:24;3.88;;;3.30;;
10126;SDS011;13080;42.608;23.362;2022-08-19T14:10:52;6.63;;;3.50;;
10126;SDS011;13080;42.608;23.362;2022-08-19T14:13:20;5.20;;;3.60;;
10126;SDS011;13080;42.608;23.362;2022-08-19T14:15:47;6.13;;;3.42;;
10126;SDS011;13080;42.608;23.362;2022-08-19T14:18:13;9.43;;;3.63;;
10126;SDS011;13080;42.608;23.362;2022-08-19T14:20:41;4.47;;;3.70;;
10126;SDS011;13080;42.608;23.362;2022-08-19T14:23:08;5.90;;;3.13;;
10126;SDS011;13080;42.608;23.362;2022-08-19T14:25:35;4.85;;;3.50;;
10126;SDS011;13080;42.608;23.362;2022-08-19T14:28:01;7.13;;;3.35;;
10126;SDS011;13080;42.608;23.362;2022-08-19T14:30:29;7.03;;;3.78;;
10126;SDS011;13080;42.608;23.362;2022-08-19T14:32:56;5.55;;;3.30;;
10126;SDS011;13080;42.608;23.362;2022-08-19T14:35:23;4.45;;;3.33;;
10126;SDS011;13080;42.608;23.362;2022-08-19T14:37:52;4.85;;;3.63;;